Date,TemperatureHighF,TemperatureAvgF,TemperatureLowF,DewpointHighF,DewpointAvgF,DewpointLowF,HumidityHigh,HumidityAvg,HumidityLow,PressureMaxIn,PressureMinIn,WindSpeedMaxMPH,WindSpeedAvgMPH,GustSpeedMaxMPH,PrecipitationSumIn
2013-3-1,42,36,31,31,28,24,95,75,54,29.46,29.31,7,3,15,0.00
2013-3-2,40,35,32,26,25,21,74,65,56,29.46,29.40,7,4,15,0.00
2013-3-3,38,32,28,26,22,20,78,69,61,29.43,29.35,8,5,17,0.00
2013-3-4,36,30,25,22,19,16,70,64,56,29.57,29.42,12,7,28,0.00
2013-3-5,43,35,28,27,23,18,75,62,52,29.82,29.58,6,3,15,0.00
2013-3-6,39,36,32,33,28,26,87,75,64,29.86,29.79,7,4,22,0.00
2013-3-7,34,33,32,27,26,26,79,76,70,29.86,29.82,6,6,16,0.00
2013-3-8,39,34,30,36,28,23,94,81,60,29.97,29.76,8,4,17,0.08
2013-3-9,54,39,25,23,19,8,80,50,16,30.10,29.96,6,2,10,0.00
2013-3-10,48,37,25,32,26,21,85,67,47,30.18,30.02,3,1,10,0.00
2013-3-11,48,42,35,39,34,30,85,76,67,30.06,29.88,3,2,10,0.00
2013-3-12,51,46,42,50,45,39,98,94,86,29.87,29.43,3,1,12,1.14
2013-3-13,46,39,31,35,28,20,90,66,41,29.59,29.50,10,4,24,0.00
2013-3-14,35,29,24,24,14,8,69,53,43,29.62,29.54,12,6,29,0.00
2013-3-15,41,31,22,30,16,6,85,55,32,29.64,29.39,8,4,20,0.01
2013-3-16,38,32,25,23,15,12,64,50,38,29.63,29.46,8,2,21,0.01
2013-3-17,35,29,22,16,10,3,65,45,25,30.05,29.64,11,4,26,0.00
2013-3-18,40,28,16,22,6,2,68,42,22,30.20,29.95,3,0,10,0.00
2013-3-19,34,31,28,33,28,24,98,92,76,29.93,29.43,6,2,14,0.00
2013-3-20,36,28,18,34,24,14,99,83,58,29.56,29.48,9,3,25,0.00
2013-3-21,38,26,12,16,13,8,86,60,34,29.57,29.34,7,2,15,0.00
2013-3-22,38,28,15,24,17,9,75,61,47,29.53,29.41,9,4,22,0.00
2013-3-23,39,34,27,22,20,18,71,57,46,29.58,29.47,12,6,35,0.00
2013-3-24,42,35,25,24,21,18,75,57,44,29.61,29.48,9,4,20,0.00
2013-3-25,44,36,27,28,24,21,79,62,44,29.53,29.25,5,2,14,0.00
2013-3-26,44,38,30,30,26,21,79,64,40,29.56,29.33,8,2,19,0.00
2013-3-27,51,38,23,34,26,19,85,63,39,29.65,29.54,11,4,24,0.00
2013-3-28,50,42,35,35,31,28,89,66,50,29.79,29.65,9,2,19,0.00
2013-3-29,54,44,33,34,31,29,83,62,40,29.82,29.75,10,3,21,0.00
2013-3-30,54,43,30,30,25,19,85,53,26,29.86,29.77,9,2,20,0.00
2013-3-31,58,42,28,39,28,22,87,63,30,29.87,29.48,5,1,22,0.12